sensor_id;sensor_type;location;lat;lon;timestamp;pressure;altitude;pressure_sealevel;temperature;humidity
24154;BME280;12312;53.362;-1.518;2023-03-18T00:00:14;97912.00;;;10.62;100.00
24154;BME280;12312;53.362;-1.518;2023-03-18T00:03:00;97915.66;;;10.70;100.00
24154;BME280;12312;53.362;-1.518;2023-03-18T00:05:44;97915.66;;;10.51;100.00
24154;BME280;12312;53.362;-1.518;2023-03-18T00:08:28;97910.94;;;10.45;100.00
24154;BME280;12312;53.362;-1.518;2023-03-18T00:11:13;97909.78;;;10.67;100.00
24154;BME280;12312;53.362;-1.518;2023-03-18T00:13:59;97915.72;;;10.32;100.00
24154;BME280;12312;53.362;-1.518;2023-03-18T00:16:44;97910.09;;;10.45;100.00
24154;BME280;12312;53.362;-1.518;2023-03-18T00:19:29;97917.50;;;10.51;100.00
24154;BME280;12312;53.362;-1.518;2023-03-18T00:22:15;97914.28;;;10.57;100.00
24154;BME280;12312;53.362;-1.518;2023-03-18T00:25:01;97919.88;;;10.54;100.00
24154;BME280;12312;53.362;-1.518;2023-03-18T00:27:45;97910.78;;;10.47;100.00
24154;BME280;12312;53.362;-1.518;2023-03-18T00:30:29;97911.34;;;10.41;100.00
24154;BME280;12312;53.362;-1.518;2023-03-18T00:33:13;97913.47;;;10.37;100.00
24154;BME280;12312;53.362;-1.518;2023-03-18T00:35:58;97911.06;;;10.44;100.00
24154;BME280;12312;53.362;-1.518;2023-03-18T00:38:43;97905.19;;;10.50;100.00
24154;BME280;12312;53.362;-1.518;2023-03-18T00:41:30;97905.59;;;10.55;100.00
24154;BME280;12312;53.362;-1.518;2023-03-18T00:44:15;97918.47;;;10.69;100.00
24154;BME280;12312;53.362;-1.518;2023-03-18T00:47:01;97913.72;;;10.53;100.00
24154;BME280;12312;53.362;-1.518;2023-03-18T00:49:45;97917.66;;;10.40;100.00
24154;BME280;12312;53.362;-1.518;2023-03-18T00:52:29;97918.75;;;10.66;100.00
24154;BME280;12312;53.362;-1.518;2023-03-18T00:55:14;97916.13;;;10.28;100.00
24154;BME280;12312;53.362;-1.518;2023-03-18T00:57:58;97919.03;;;10.44;100.00
24154;BME280;12312;53.362;-1.518;2023-03-18T01:00:42;97917.50;;;10.51;100.00
24154;BME280;12312;53.362;-1.518;2023-03-18T01:03:26;97914.00;;;10.60;100.00
24154;BME280;12312;53.362;-1.518;2023-03-18T01:06:13;97914.28;;;10.57;100.00
24154;BME280;12312;53.362;-1.518;2023-03-18T01:08:58;97913.13;;;10.69;100.00
24154;BME280;12312;53.362;-1.518;2023-03-18T01:11:42;97910.84;;;10.74;100.00
24154;BME280;12312;53.362;-1.518;2023-03-18T01:14:26;97921.69;;;10.63;100.00
24154;BME280;12312;53.362;-1.518;2023-03-18T01:17:11;97914.72;;;10.43;100.00
24154;BME280;12312;53.362;-1.518;2023-03-18T01:19:55;97925.50;;;10.41;100.00
24154;BME280;12312;53.362;-1.518;2023-03-18T01:22:39;97916.81;;;10.49;100.00
24154;BME280;12312;53.362;-1.518;2023-03-18T01:25:25;97923.50;;;10.53;100.00
24154;BME280;12312;53.362;-1.518;2023-03-18T01:28:10;97923.50;;;10.53;100.00
24154;BME280;12312;53.362;-1.518;2023-03-18T01:30:55;97925.50;;;10.51;100.00
24154;BME280;12312;53.362;-1.518;2023-03-18T01:33:40;97915.28;;;10.27;100.00
24154;BME280;12312;53.362;-1.518;2023-03-18T01:36:24;97920.19;;;10.22;100.00
24154;BME280;12312;53.362;-1.518;2023-03-18T01:39:08;97914.28;;;10.38;100.00
24154;BME280;12312;53.362;-1.518;2023-03-18T01:41:53;97918.22;;;10.15;100.00
24154;BME280;12312;53.362;-1.518;2023-03-18T01:44:37;97925.06;;;10.46;100.00
24154;BME280;12312;53.362;-1.518;2023-03-18T01:47:21;97915.44;;;10.45;100.00
24154;BME280;12312;53.362;-1.518;2023-03-18T01:50:06;97914.00;;;10.41;100.00
24154;BME280;12312;53.362;-1.518;2023-03-18T01:52:54;97906.16;;;10.49;100.00
24154;BME280;12312;53.362;-1.518;2023-03-18T01:55:40;97909.69;;;10.40;100.00
24154;BME280;12312;53.362;-1.518;2023-03-18T01:58:44;97904.50;;;10.48;100.00
24154;BME280;12312;53.362;-1.518;2023-03-18T02:01:52;97911.25;;;10.33;100.00
24154;BME280;12312;53.362;-1.518;2023-03-18T02:04:44;97909.81;;;10.48;100.00
24154;BME280;12312;53.362;-1.518;2023-03-18T02:07:32;97905.03;;;10.61;100.00
24154;BME280;12312;53.362;-1.518;2023-03-18T02:10:20;97907.56;;;10.53;100.00
24154;BME280;12312;53.362;-1.518;2023-03-18T02:13:07;97910.69;;;10.39;100.00
24154;BME280;12312;53.362;-1.518;2023-03-18T02:15:55;97904.47;;;10.57;100.00
24154;BME280;12312;53.362;-1.518;2023-03-18T02:18:46;97904.16;;;10.70;100.00
24154;BME280;12312;53.362;-1.518;2023-03-18T02:21:57;97896.31;;;10.68;100.00
24154;BME280;12312;53.362;-1.518;2023-03-18T02:27:49;97894.59;;;10.77;100.00
24154;BME280;12312;53.362;-1.518;2023-03-18T02:30:43;97895.31;;;10.79;100.00
24154;BME280;12312;53.362;-1.518;2023-03-18T02:33:40;97894.44;;;10.42;100.00
24154;BME280;12312;53.362;-1.518;2023-03-18T02:36:27;97897.31;;;10.67;100.00
24154;BME280;12312;53.362;-1.518;2023-03-18T02:39:14;97896.03;;;10.62;100.00
24154;BME280;12312;53.362;-1.518;2023-03-18T02:41:58;97899.69;;;10.70;100.00
24154;BME280;12312;53.362;-1.518;2023-03-18T02:44:46;97906.13;;;10.68;100.00
24154;BME280;12312;53.362;-1.518;2023-03-18T02:47:30;97903.88;;;10.63;100.00
24154;BME280;12312;53.362;-1.518;2023-03-18T02:50:15;97908.69;;;10.41;100.00
24154;BME280;12312;53.362;-1.518;2023-03-18T02:53:03;97910.63;;;10.67;100.00
24154;BME280;12312;53.362;-1.518;2023-03-18T02:55:48;97902.78;;;10.66;100.00
24154;BME280;12312;53.362;-1.518;2023-03-18T02:58:32;97906.97;;;10.68;100.00
24154;BME280;12312;53.362;-1.518;2023-03-18T03:01:18;97898.91;;;10.51;100.00
24154;BME280;12312;53.362;-1.518;2023-03-18T03:04:03;97901.81;;;10.57;100.00
24154;BME280;12312;53.362;-1.518;2023-03-18T03:06:51;97906.41;;;10.65;100.00
24154;BME280;12312;53.362;-1.518;2023-03-18T03:09:36;97894.97;;;10.55;100.00
24154;BME280;12312;53.362;-1.518;2023-03-18T03:12:20;97899.13;;;10.67;100.00
24154;BME280;12312;53.362;-1.518;2023-03-18T03:15:06;97899.66;;;10.80;100.00
24154;BME280;12312;53.362;-1.518;2023-03-18T03:17:52;97903.88;;;10.63;100.00
24154;BME280;12312;53.362;-1.518;2023-03-18T03:20:36;97897.69;;;10.72;100.00
24154;BME280;12312;53.362;-1.518;2023-03-18T03:23:21;97897.69;;;10.72;100.00
24154;BME280;12312;53.362;-1.518;2023-03-18T03:26:05;97890.00;;;10.79;100.00
24154;BME280;12312;53.362;-1.518;2023-03-18T03:28:50;97901.47;;;10.79;100.00
24154;BME280;12312;53.362;-1.518;2023-03-18T03:31:34;97888.28;;;10.88;100.00
24154;BME280;12312;53.362;-1.518;2023-03-18T03:34:20;97887.00;;;10.92;100.00
24154;BME280;12312;53.362;-1.518;2023-03-18T03:37:04;97893.19;;;10.92;100.00
24154;BME280;12312;53.362;-1.518;2023-03-18T03:39:49;97890.22;;;10.95;100.00
24154;BME280;12312;53.362;-1.518;2023-03-18T03:42:34;97897.81;;;10.90;100.00
24154;BME280;12312;53.362;-1.518;2023-03-18T03:45:18;97901.41;;;10.99;100.00
24154;BME280;12312;53.362;-1.518;2023-03-18T03:48:03;97901.41;;;10.99;100.00
24154;BME280;12312;53.362;-1.518;2023-03-18T03:50:49;97909.81;;;10.48;100.00
24154;BME280;12312;53.362;-1.518;2023-03-18T03:53:34;97909.16;;;10.92;100.00
24154;BME280;12312;53.362;-1.518;2023-03-18T03:56:19;97908.75;;;10.77;100.00
24154;BME280;12312;53.362;-1.518;2023-03-18T03:59:03;97908.09;;;10.66;100.00
24154;BME280;12312;53.362;-1.518;2023-03-18T04:01:47;97913.00;;;10.70;100.00
24154;BME280;12312;53.362;-1.518;2023-03-18T04:04:31;97916.75;;;10.68;100.00
24154;BME280;12312;53.362;-1.518;2023-03-18T04:07:16;97910.34;;;10.70;100.00
24154;BME280;12312;53.362;-1.518;2023-03-18T04:10:00;97912.28;;;10.68;100.00
24154;BME280;12312;53.362;-1.518;2023-03-18T04:12:46;97913.88;;;10.52;100.00
24154;BME280;12312;53.362;-1.518;2023-03-18T04:15:30;97917.09;;;10.36;100.00
24154;BME280;12312;53.362;-1.518;2023-03-18T04:18:14;97911.06;;;10.63;100.00
24154;BME280;12312;53.362;-1.518;2023-03-18T04:20:59;97914.00;;;10.41;100.00
24154;BME280;12312;53.362;-1.518;2023-03-18T04:23:43;97918.66;;;10.39;100.00
24154;BME280;12312;53.362;-1.518;2023-03-18T04:26:27;97921.16;;;10.21;100.00
24154;BME280;12312;53.362;-1.518;2023-03-18T04:29:11;97928.31;;;10.30;100.00
24154;BME280;12312;53.362;-1.518;2023-03-18T04:31:56;97917.38;;;10.24;100.00
24154;BME280;12312;53.362;-1.518;2023-03-18T04:34:40;97919.34;;;10.22;100.00
24154;BME280;12312;53.362;-1.518;2023-03-18T04:37:23;97919.34;;;10.22;100.00
24154;BME280;12312;53.362;-1.518;2023-03-18T04:40:08;97919.03;;;10.63;100.00
24154;BME280;12312;53.362;-1.518;2023-03-18T04:42:53;97918.66;;;10.39;100.00
24154;BME280;12312;53.362;-1.518;2023-03-18T04:45:37;97936.69;;;10.35;100.00
24154;BME280;12312;53.362;-1.518;2023-03-18T04:48:21;97933.06;;;10.36;100.00
24154;BME280;12312;53.362;-1.518;2023-03-18T04:51:06;97939.75;;;10.50;100.00
24154;BME280;12312;53.362;-1.518;2023-03-18T04:53:55;97936.13;;;10.51;100.00
24154;BME280;12312;53.362;-1.518;2023-03-18T04:56:40;97941.41;;;10.70;100.00
24154;BME280;12312;53.362;-1.518;2023-03-18T04:59:23;97937.22;;;10.67;100.00
24154;BME280;12312;53.362;-1.518;2023-03-18T05:02:08;97945.34;;;10.66;100.00
24154;BME280;12312;53.362;-1.518;2023-03-18T05:04:53;97946.78;;;10.51;100.00
24154;BME280;12312;53.362;-1.518;2023-03-18T05:07:38;97943.94;;;10.62;100.00
24154;BME280;12312;53.362;-1.518;2023-03-18T05:10:22;97943.69;;;10.36;100.00
24154;BME280;12312;53.362;-1.518;2023-03-18T05:13:06;97943.69;;;10.36;100.00
24154;BME280;12312;53.362;-1.518;2023-03-18T05:15:51;97943.69;;;10.36;100.00
24154;BME280;12312;53.362;-1.518;2023-03-18T05:18:36;97951.28;;;10.31;100.00
24154;BME280;12312;53.362;-1.518;2023-03-18T05:21:20;97950.97;;;10.44;100.00
24154;BME280;12312;53.362;-1.518;2023-03-18T05:24:05;97951.25;;;10.60;100.00
24154;BME280;12312;53.362;-1.518;2023-03-18T05:26:49;97955.19;;;10.46;100.00
24154;BME280;12312;53.362;-1.518;2023-03-18T05:29:33;127331.19;;;10.46;100.00
24154;BME280;12312;53.362;-1.518;2023-03-18T05:32:17;97960.59;;;10.73;100.00
24154;BME280;12312;53.362;-1.518;2023-03-18T05:35:01;97962.03;;;10.49;100.00
24154;BME280;12312;53.362;-1.518;2023-03-18T05:37:46;97961.50;;;10.36;100.00
24154;BME280;12312;53.362;-1.518;2023-03-18T05:40:30;97964.69;;;10.49;100.00
24154;BME280;12312;53.362;-1.518;2023-03-18T05:43:14;97966.91;;;10.44;100.00
24154;BME280;12312;53.362;-1.518;2023-03-18T05:45:58;97966.91;;;10.44;100.00
24154;BME280;12312;53.362;-1.518;2023-03-18T05:48:42;97969.47;;;10.36;100.00
24154;BME280;12312;53.362;-1.518;2023-03-18T05:51:26;97968.19;;;10.49;100.00
24154;BME280;12312;53.362;-1.518;2023-03-18T05:54:11;97968.19;;;10.49;100.00
24154;BME280;12312;53.362;-1.518;2023-03-18T05:56:55;97967.50;;;10.28;100.00
24154;BME280;12312;53.362;-1.518;2023-03-18T05:59:41;97967.75;;;10.35;100.00
24154;BME280;12312;53.362;-1.518;2023-03-18T06:02:26;97970.72;;;10.13;100.00
24154;BME280;12312;53.362;-1.518;2023-03-18T06:05:11;97971.97;;;10.18;100.00
24154;BME280;12312;53.362;-1.518;2023-03-18T06:07:56;97983.44;;;10.19;100.00
24154;BME280;12312;53.362;-1.518;2023-03-18T06:10:40;97978.53;;;10.24;100.00
24154;BME280;12312;53.362;-1.518;2023-03-18T06:13:24;97980.94;;;10.27;100.00
24154;BME280;12312;53.362;-1.518;2023-03-18T06:16:08;97970.03;;;10.30;100.00
24154;BME280;12312;53.362;-1.518;2023-03-18T06:18:52;97978.97;;;10.38;100.00
24154;BME280;12312;53.362;-1.518;2023-03-18T06:21:38;97986.53;;;10.43;100.00
24154;BME280;12312;53.362;-1.518;2023-03-18T06:24:22;97993.53;;;10.25;100.00
24154;BME280;12312;53.362;-1.518;2023-03-18T06:27:06;97994.63;;;10.32;100.00
24154;BME280;12312;53.362;-1.518;2023-03-18T06:29:50;97994.94;;;10.38;100.00
24154;BME280;12312;53.362;-1.518;2023-03-18T06:32:34;97988.75;;;10.38;100.00
24154;BME280;12312;53.362;-1.518;2023-03-18T06:35:18;97995.91;;;10.28;100.00
24154;BME280;12312;53.362;-1.518;2023-03-18T06:38:04;97999.97;;;10.41;100.00
24154;BME280;12312;53.362;-1.518;2023-03-18T06:40:48;98006.41;;;10.39;100.00
24154;BME280;12312;53.362;-1.518;2023-03-18T06:43:32;98011.44;;;10.23;100.00
24154;BME280;12312;53.362;-1.518;2023-03-18T06:46:16;98011.19;;;10.45;100.00
24154;BME280;12312;53.362;-1.518;2023-03-18T06:49:01;98011.19;;;10.45;100.00
24154;BME280;12312;53.362;-1.518;2023-03-18T06:51:45;98021.50;;;10.10;100.00
24154;BME280;12312;53.362;-1.518;2023-03-18T06:54:28;98019.97;;;10.17;100.00
24154;BME280;12312;53.362;-1.518;2023-03-18T06:57:13;98015.06;;;10.41;100.00
24154;BME280;12312;53.362;-1.518;2023-03-18T06:59:57;98013.28;;;10.51;100.00
24154;BME280;12312;53.362;-1.518;2023-03-18T07:02:41;98016.59;;;10.24;100.00
24154;BME280;12312;53.362;-1.518;2023-03-18T07:05:27;98016.59;;;10.24;100.00
24154;BME280;12312;53.362;-1.518;2023-03-18T07:08:11;98028.81;;;10.46;100.00
24154;BME280;12312;53.362;-1.518;2023-03-18T07:10:55;98030.16;;;11.07;100.00
24154;BME280;12312;53.362;-1.518;2023-03-18T07:13:40;98039.84;;;11.91;100.00
24154;BME280;12312;53.362;-1.518;2023-03-18T07:16:24;98040.44;;;11.48;100.00
24154;BME280;12312;53.362;-1.518;2023-03-18T07:19:08;98033.97;;;11.51;100.00
24154;BME280;12312;53.362;-1.518;2023-03-18T07:21:53;98049.47;;;12.01;100.00
24154;BME280;12312;53.362;-1.518;2023-03-18T07:24:36;98044.50;;;12.33;100.00
24154;BME280;12312;53.362;-1.518;2023-03-18T07:27:20;98044.03;;;12.20;100.00
24154;BME280;12312;53.362;-1.518;2023-03-18T07:30:06;98033.38;;;11.66;100.00
24154;BME280;12312;53.362;-1.518;2023-03-18T07:32:52;98031.38;;;11.68;100.00
24154;BME280;12312;53.362;-1.518;2023-03-18T07:35:36;98040.25;;;11.13;100.00
24154;BME280;12312;53.362;-1.518;2023-03-18T07:38:24;98038.25;;;11.15;100.00
24154;BME280;12312;53.362;-1.518;2023-03-18T07:41:08;98041.53;;;10.71;100.00
24154;BME280;12312;53.362;-1.518;2023-03-18T07:43:52;98041.97;;;10.95;100.00
24154;BME280;12312;53.362;-1.518;2023-03-18T07:46:36;98046.41;;;11.04;100.00
24154;BME280;12312;53.362;-1.518;2023-03-18T07:49:20;98044.69;;;11.22;100.00
24154;BME280;12312;53.362;-1.518;2023-03-18T07:52:04;98039.63;;;11.29;100.00
24154;BME280;12312;53.362;-1.518;2023-03-18T07:54:49;98034.75;;;11.70;100.00
24154;BME280;12312;53.362;-1.518;2023-03-18T07:57:34;98036.25;;;11.36;100.00
24154;BME280;12312;53.362;-1.518;2023-03-18T08:00:18;98031.50;;;11.30;100.00
24154;BME280;12312;53.362;-1.518;2023-03-18T08:03:02;98034.81;;;10.86;100.00
24154;BME280;12312;53.362;-1.518;2023-03-18T08:05:46;98034.81;;;10.86;100.00
24154;BME280;12312;53.362;-1.518;2023-03-18T08:08:30;98047.56;;;10.92;100.00
24154;BME280;12312;53.362;-1.518;2023-03-18T08:11:15;98051.75;;;10.85;100.00
24154;BME280;12312;53.362;-1.518;2023-03-18T08:13:59;98106.91;;;11.06;100.00
24154;BME280;12312;53.362;-1.518;2023-03-18T08:16:43;98061.25;;;11.16;100.00
24154;BME280;12312;53.362;-1.518;2023-03-18T08:19:28;98061.25;;;11.16;100.00
24154;BME280;12312;53.362;-1.518;2023-03-18T08:22:14;98056.66;;;11.55;100.00
24154;BME280;12312;53.362;-1.518;2023-03-18T08:25:03;98059.41;;;11.82;100.00
24154;BME280;12312;53.362;-1.518;2023-03-18T08:27:47;98059.41;;;11.82;100.00
24154;BME280;12312;53.362;-1.518;2023-03-18T08:30:31;98068.38;;;11.81;100.00
24154;BME280;12312;53.362;-1.518;2023-03-18T08:33:15;98068.09;;;11.74;100.00
24154;BME280;12312;53.362;-1.518;2023-03-18T08:35:59;98068.41;;;11.71;100.00
24154;BME280;12312;53.362;-1.518;2023-03-18T08:38:43;98075.25;;;11.83;100.00
24154;BME280;12312;53.362;-1.518;2023-03-18T08:41:28;98068.75;;;11.95;100.00
24154;BME280;12312;53.362;-1.518;2023-03-18T08:44:12;98068.75;;;11.95;100.00
24154;BME280;12312;53.362;-1.518;2023-03-18T08:46:56;98069.22;;;11.81;100.00
24154;BME280;12312;53.362;-1.518;2023-03-18T08:49:40;98054.59;;;11.85;100.00
24154;BME280;12312;53.362;-1.518;2023-03-18T08:52:25;98065.97;;;11.87;100.00
24154;BME280;12312;53.362;-1.518;2023-03-18T08:55:09;98069.19;;;11.91;100.00
24154;BME280;12312;53.362;-1.518;2023-03-18T08:57:53;98060.16;;;12.01;100.00
24154;BME280;12312;53.362;-1.518;2023-03-18T09:00:38;98049.34;;;12.20;100.00
24154;BME280;12312;53.362;-1.518;2023-03-18T09:03:26;98055.56;;;12.38;100.00
24154;BME280;12312;53.362;-1.518;2023-03-18T09:06:11;98070.50;;;12.04;100.00
24154;BME280;12312;53.362;-1.518;2023-03-18T09:08:56;98073.03;;;12.06;100.00
24154;BME280;12312;53.362;-1.518;2023-03-18T09:11:41;98074.97;;;12.13;100.00
24154;BME280;12312;53.362;-1.518;2023-03-18T09:14:25;98081.66;;;12.17;100.00
24154;BME280;12312;53.362;-1.518;2023-03-18T09:17:10;98084.47;;;12.16;100.00
24154;BME280;12312;53.362;-1.518;2023-03-18T09:19:54;98076.19;;;11.92;100.00
24154;BME280;12312;53.362;-1.518;2023-03-18T09:22:41;98071.84;;;11.91;100.00
24154;BME280;12312;53.362;-1.518;2023-03-18T09:25:25;98080.47;;;12.02;100.00
24154;BME280;12312;53.362;-1.518;2023-03-18T09:28:10;98088.97;;;12.15;100.00
24154;BME280;12312;53.362;-1.518;2023-03-18T09:30:54;98088.78;;;12.26;100.00
24154;BME280;12312;53.362;-1.518;2023-03-18T09:33:39;98092.75;;;11.86;100.00
24154;BME280;12312;53.362;-1.518;2023-03-18T09:36:25;98089.53;;;11.82;100.00
24154;BME280;12312;53.362;-1.518;2023-03-18T09:39:10;98089.53;;;11.82;100.00
24154;BME280;12312;53.362;-1.518;2023-03-18T09:45:02;98096.88;;;12.34;100.00
24154;BME280;12312;53.362;-1.518;2023-03-18T09:50:50;98086.63;;;12.92;100.00
24154;BME280;12312;53.362;-1.518;2023-03-18T09:53:51;98082.50;;;12.98;100.00
24154;BME280;12312;53.362;-1.518;2023-03-18T09:56:37;98090.00;;;13.12;100.00
24154;BME280;12312;53.362;-1.518;2023-03-18T09:59:41;74862.75;;;13.02;100.00
24154;BME280;12312;53.362;-1.518;2023-03-18T10:05:52;98093.97;;;13.08;100.00
24154;BME280;12312;53.362;-1.518;2023-03-18T10:17:40;98096.09;;;12.87;100.00
24154;BME280;12312;53.362;-1.518;2023-03-18T10:20:36;98099.91;;;13.37;100.00
24154;BME280;12312;53.362;-1.518;2023-03-18T10:23:30;98096.84;;;13.83;100.00
24154;BME280;12312;53.362;-1.518;2023-03-18T10:29:46;98111.44;;;13.20;100.00
24154;BME280;12312;53.362;-1.518;2023-03-18T10:38:50;98100.66;;;13.29;100.00
24154;BME280;12312;53.362;-1.518;2023-03-18T10:41:37;98103.53;;;13.36;100.00
24154;BME280;12312;53.362;-1.518;2023-03-18T10:44:25;98099.75;;;12.86;100.00
24154;BME280;12312;53.362;-1.518;2023-03-18T10:47:31;98102.03;;;12.98;100.00
24154;BME280;12312;53.362;-1.518;2023-03-18T10:50:39;98102.34;;;13.13;100.00
24154;BME280;12312;53.362;-1.518;2023-03-18T10:56:22;98108.22;;;12.99;100.00
24154;BME280;12312;53.362;-1.518;2023-03-18T10:59:17;98102.50;;;12.94;100.00
24154;BME280;12312;53.362;-1.518;2023-03-18T11:02:14;98104.66;;;13.08;100.00
24154;BME280;12312;53.362;-1.518;2023-03-18T11:05:17;98104.97;;;13.05;100.00
24154;BME280;12312;53.362;-1.518;2023-03-18T11:08:07;98104.50;;;13.09;100.00
24154;BME280;12312;53.362;-1.518;2023-03-18T11:10:51;98106.91;;;13.38;100.00
24154;BME280;12312;53.362;-1.518;2023-03-18T11:13:36;98107.00;;;13.54;100.00
24154;BME280;12312;53.362;-1.518;2023-03-18T11:19:40;98101.78;;;13.70;100.00
24154;BME280;12312;53.362;-1.518;2023-03-18T11:22:30;98105.44;;;13.69;100.00
24154;BME280;12312;53.362;-1.518;2023-03-18T11:25:21;98102.41;;;13.64;100.00
24154;BME280;12312;53.362;-1.518;2023-03-18T11:28:20;98100.09;;;13.43;100.00
24154;BME280;12312;53.362;-1.518;2023-03-18T11:31:06;98101.97;;;13.51;100.00
24154;BME280;12312;53.362;-1.518;2023-03-18T11:33:57;98098.81;;;13.30;100.00
24154;BME280;12312;53.362;-1.518;2023-03-18T11:36:41;98097.69;;;13.58;100.00
24154;BME280;12312;53.362;-1.518;2023-03-18T11:39:44;98098.34;;;13.52;100.00
24154;BME280;12312;53.362;-1.518;2023-03-18T11:42:31;98099.59;;;13.40;100.00
24154;BME280;12312;53.362;-1.518;2023-03-18T11:45:42;98101.72;;;13.62;100.00
24154;BME280;12312;53.362;-1.518;2023-03-18T11:48:34;98099.91;;;14.71;100.00
24154;BME280;12312;53.362;-1.518;2023-03-18T12:04:54;98096.16;;;14.14;100.00
24154;BME280;12312;53.362;-1.518;2023-03-18T12:10:46;98094.31;;;13.81;100.00
24154;BME280;12312;53.362;-1.518;2023-03-18T12:35:36;98086.16;;;13.32;100.00
24154;BME280;12312;53.362;-1.518;2023-03-18T12:44:27;98081.84;;;14.23;100.00
24154;BME280;12312;53.362;-1.518;2023-03-18T12:47:33;98079.16;;;14.81;100.00
24154;BME280;12312;53.362;-1.518;2023-03-18T12:50:23;98077.53;;;15.44;100.00
24154;BME280;12312;53.362;-1.518;2023-03-18T12:53:27;98083.63;;;16.01;100.00
24154;BME280;12312;53.362;-1.518;2023-03-18T12:56:19;98077.31;;;16.25;100.00
24154;BME280;12312;53.362;-1.518;2023-03-18T12:59:07;98066.84;;;16.99;100.00
24154;BME280;12312;53.362;-1.518;2023-03-18T13:05:29;98075.56;;;16.01;98.49
24154;BME280;12312;53.362;-1.518;2023-03-18T13:08:24;98063.44;;;15.58;100.00
24154;BME280;12312;53.362;-1.518;2023-03-18T13:17:46;98068.63;;;13.63;100.00
24154;BME280;12312;53.362;-1.518;2023-03-18T13:20:35;98070.19;;;13.99;100.00
24154;BME280;12312;53.362;-1.518;2023-03-18T13:26:42;98065.91;;;16.61;98.76
24154;BME280;12312;53.362;-1.518;2023-03-18T13:33:05;98057.69;;;18.11;85.48
24154;BME280;12312;53.362;-1.518;2023-03-18T13:36:00;98057.50;;;16.87;90.46
24154;BME280;12312;53.362;-1.518;2023-03-18T13:42:20;98050.69;;;18.60;88.78
24154;BME280;12312;53.362;-1.518;2023-03-18T13:48:06;98053.09;;;16.94;90.14
24154;BME280;12312;53.362;-1.518;2023-03-18T13:50:51;98046.72;;;15.40;100.00
24154;BME280;12312;53.362;-1.518;2023-03-18T13:53:40;98045.00;;;14.83;100.00
24154;BME280;12312;53.362;-1.518;2023-03-18T14:05:44;98041.97;;;14.62;100.00
24154;BME280;12312;53.362;-1.518;2023-03-18T14:17:47;98041.84;;;14.96;100.00
24154;BME280;12312;53.362;-1.518;2023-03-18T14:20:38;98039.13;;;14.80;100.00
24154;BME280;12312;53.362;-1.518;2023-03-18T14:23:32;98038.66;;;14.92;100.00
24154;BME280;12312;53.362;-1.518;2023-03-18T14:26:24;98042.69;;;14.96;100.00
24154;BME280;12312;53.362;-1.518;2023-03-18T14:31:57;98046.34;;;14.95;100.00
24154;BME280;12312;53.362;-1.518;2023-03-18T14:34:56;98036.66;;;15.02;100.00
24154;BME280;12312;53.362;-1.518;2023-03-18T14:38:04;98038.31;;;14.95;100.00
24154;BME280;12312;53.362;-1.518;2023-03-18T14:40:53;98032.91;;;14.47;100.00
24154;BME280;12312;53.362;-1.518;2023-03-18T14:44:21;98033.06;;;14.46;100.00
24154;BME280;12312;53.362;-1.518;2023-03-18T14:47:18;98036.13;;;14.91;100.00
24154;BME280;12312;53.362;-1.518;2023-03-18T14:50:12;98028.09;;;14.83;100.00
24154;BME280;12312;53.362;-1.518;2023-03-18T14:56:22;98029.09;;;14.74;100.00
24154;BME280;12312;53.362;-1.518;2023-03-18T14:59:23;98026.25;;;15.07;100.00
24154;BME280;12312;53.362;-1.518;2023-03-18T15:02:20;98026.06;;;15.33;100.00
24154;BME280;12312;53.362;-1.518;2023-03-18T15:05:05;98022.53;;;15.56;100.00
24154;BME280;12312;53.362;-1.518;2023-03-18T15:07:52;98017.88;;;15.26;93.73
24154;BME280;12312;53.362;-1.518;2023-03-18T15:10:36;98015.78;;;15.68;93.17
24154;BME280;12312;53.362;-1.518;2023-03-18T15:13:22;98014.59;;;15.71;85.38
24154;BME280;12312;53.362;-1.518;2023-03-18T15:16:11;98014.38;;;14.94;86.73
24154;BME280;12312;53.362;-1.518;2023-03-18T15:18:56;98012.19;;;15.21;99.02
24154;BME280;12312;53.362;-1.518;2023-03-18T15:21:40;98018.56;;;15.12;88.03
24154;BME280;12312;53.362;-1.518;2023-03-18T15:24:25;98027.25;;;14.58;87.85
24154;BME280;12312;53.362;-1.518;2023-03-18T15:27:11;98022.53;;;14.60;87.07
24154;BME280;12312;53.362;-1.518;2023-03-18T15:29:58;98021.06;;;14.82;90.56
24154;BME280;12312;53.362;-1.518;2023-03-18T15:32:46;98031.91;;;14.56;91.13
24154;BME280;12312;53.362;-1.518;2023-03-18T15:35:32;98027.75;;;14.70;87.06
24154;BME280;12312;53.362;-1.518;2023-03-18T15:38:17;98027.75;;;14.70;94.20
24154;BME280;12312;53.362;-1.518;2023-03-18T15:41:10;98029.75;;;14.60;98.35
24154;BME280;12312;53.362;-1.518;2023-03-18T15:43:54;98032.75;;;14.07;100.00
24154;BME280;12312;53.362;-1.518;2023-03-18T15:46:45;98025.59;;;13.74;100.00
24154;BME280;12312;53.362;-1.518;2023-03-18T15:49:29;98019.13;;;13.51;100.00
24154;BME280;12312;53.362;-1.518;2023-03-18T15:52:15;98023.81;;;13.49;100.00
24154;BME280;12312;53.362;-1.518;2023-03-18T15:54:59;98031.22;;;13.12;100.00
24154;BME280;12312;53.362;-1.518;2023-03-18T15:57:43;98031.75;;;12.98;100.00
24154;BME280;12312;53.362;-1.518;2023-03-18T16:00:28;98030.31;;;12.86;100.00
24154;BME280;12312;53.362;-1.518;2023-03-18T16:03:18;98032.69;;;13.06;100.00
24154;BME280;12312;53.362;-1.518;2023-03-18T16:06:04;98027.81;;;12.84;100.00
24154;BME280;12312;53.362;-1.518;2023-03-18T16:08:49;98033.69;;;12.70;100.00
24154;BME280;12312;53.362;-1.518;2023-03-18T16:11:33;98035.59;;;12.60;100.00
24154;BME280;12312;53.362;-1.518;2023-03-18T16:14:22;98039.94;;;12.61;100.00
24154;BME280;12312;53.362;-1.518;2023-03-18T16:17:10;98045.41;;;12.59;100.00
24154;BME280;12312;53.362;-1.518;2023-03-18T16:19:55;98044.19;;;12.72;100.00
24154;BME280;12312;53.362;-1.518;2023-03-18T16:22:39;57923.84;;;-139.99;100.00
24154;BME280;12312;53.362;-1.518;2023-03-18T16:25:25;98046.41;;;13.11;100.00
24154;BME280;12312;53.362;-1.518;2023-03-18T16:28:19;98045.59;;;13.11;100.00
24154;BME280;12312;53.362;-1.518;2023-03-18T16:31:03;98057.19;;;13.02;100.00